Mississauga, Canada
Current Conditions -  °F | °C
As of 1:00 PM on Friday 28 Nov 2014 (Local Time) from CYYZ Reporting Station
Overcast Overcast  
Wind Chill: 17°   Ceiling: 3000
Heat Index: 27°   Visibility: 15mi
Dew Point: 14°   Wind: 10mph
Humidity: 59%   Direction: 260°W
Pressure: 30.21"   Gusts: NA
Location:  43.59°N, 79.64°W
Report Text: CYYZ 281800Z 26009KT 15SM OVC030 M03/M10 A3021 RMK SC8 SLP240
Loading
Personal Weather Stations






























Interactive Weather Map New forecast layout! Learn more

10-Day Weather Forecast

Advertisements
Track Severe Weather on mobile